sensor_id;sensor_type;location;lat;lon;timestamp;pressure;altitude;pressure_sealevel;temperature;humidity
40596;BME280;26304;48.794;9.820;2023-03-21T00:01:03;96537.44;;;18.08;48.05
40596;BME280;26304;48.794;9.820;2023-03-21T00:06:45;96530.66;;;18.07;47.92
40596;BME280;26304;48.794;9.820;2023-03-21T00:12:28;96526.13;;;18.04;48.28
40596;BME280;26304;48.794;9.820;2023-03-21T00:18:14;96512.59;;;18.06;48.14
40596;BME280;26304;48.794;9.820;2023-03-21T00:23:57;96510.34;;;18.04;48.42
40596;BME280;26304;48.794;9.820;2023-03-21T00:29:40;96518.59;;;18.03;48.39
40596;BME280;26304;48.794;9.820;2023-03-21T00:35:23;96509.94;;;18.02;48.13
40596;BME280;26304;48.794;9.820;2023-03-21T00:41:07;96512.19;;;18.00;48.49
40596;BME280;26304;48.794;9.820;2023-03-21T00:46:50;96502.78;;;17.99;48.36
40596;BME280;26304;48.794;9.820;2023-03-21T00:52:34;96498.63;;;17.98;48.44
40596;BME280;26304;48.794;9.820;2023-03-21T00:58:16;96492.25;;;17.99;48.17
40596;BME280;26304;48.794;9.820;2023-03-21T01:04:00;96489.25;;;17.97;48.18
40596;BME280;26304;48.794;9.820;2023-03-21T01:09:46;96477.94;;;17.96;48.28
40596;BME280;26304;48.794;9.820;2023-03-21T01:15:29;96474.19;;;17.94;48.56
40596;BME280;26304;48.794;9.820;2023-03-21T01:21:12;96477.19;;;17.92;48.32
40596;BME280;26304;48.794;9.820;2023-03-21T01:26:56;96479.44;;;17.94;48.89
40596;BME280;26304;48.794;9.820;2023-03-21T01:32:39;96471.91;;;17.92;48.47
40596;BME280;26304;48.794;9.820;2023-03-21T01:38:21;96474.91;;;17.91;48.32
40596;BME280;26304;48.794;9.820;2023-03-21T01:44:05;96467.78;;;17.91;48.40
40596;BME280;26304;48.794;9.820;2023-03-21T01:49:50;96462.88;;;17.90;48.30
40596;BME280;26304;48.794;9.820;2023-03-21T01:55:33;96461.38;;;17.89;48.66
40596;BME280;26304;48.794;9.820;2023-03-21T02:01:17;96464.75;;;17.89;48.69
40596;BME280;26304;48.794;9.820;2023-03-21T02:07:05;96457.22;;;17.88;48.33
40596;BME280;26304;48.794;9.820;2023-03-21T02:12:48;96465.13;;;17.88;48.41
40596;BME280;26304;48.794;9.820;2023-03-21T02:18:36;96443.31;;;17.87;48.47
40596;BME280;26304;48.794;9.820;2023-03-21T02:30:53;96451.56;;;17.86;48.72
40596;BME280;26304;48.794;9.820;2023-03-21T02:37:06;96429.00;;;17.85;48.54
40596;BME280;26304;48.794;9.820;2023-03-21T02:42:56;96426.72;;;17.83;48.42
40596;BME280;26304;48.794;9.820;2023-03-21T02:48:45;96429.34;;;17.83;48.88
40596;BME280;26304;48.794;9.820;2023-03-21T02:54:30;96419.94;;;17.82;48.59
40596;BME280;26304;48.794;9.820;2023-03-21T03:00:17;96419.94;;;17.82;48.49
40596;BME280;26304;48.794;9.820;2023-03-21T03:06:03;96422.97;;;17.81;48.35
40596;BME280;26304;48.794;9.820;2023-03-21T03:11:56;96421.81;;;17.82;48.60
40596;BME280;26304;48.794;9.820;2023-03-21T03:17:50;96414.66;;;17.78;48.46
40596;BME280;26304;48.794;9.820;2023-03-21T03:23:41;96417.28;;;17.78;48.17
40596;BME280;26304;48.794;9.820;2023-03-21T03:29:28;96418.81;;;17.79;48.11
40596;BME280;26304;48.794;9.820;2023-03-21T03:35:14;96411.66;;;17.76;48.32
40596;BME280;26304;48.794;9.820;2023-03-21T03:41:00;96416.91;;;17.76;48.42
40596;BME280;26304;48.794;9.820;2023-03-21T03:46:50;96418.38;;;17.74;47.91
40596;BME280;26304;48.794;9.820;2023-03-21T03:52:36;96413.91;;;17.74;48.26
40596;BME280;26304;48.794;9.820;2023-03-21T03:58:21;96416.13;;;17.72;48.41
40596;BME280;26304;48.794;9.820;2023-03-21T04:04:05;96413.09;;;17.70;48.52
40596;BME280;26304;48.794;9.820;2023-03-21T04:09:48;96400.31;;;17.69;48.05
40596;BME280;26304;48.794;9.820;2023-03-21T04:15:30;96397.31;;;17.70;47.87
40596;BME280;26304;48.794;9.820;2023-03-21T04:21:14;96400.69;;;17.67;48.22
40596;BME280;26304;48.794;9.820;2023-03-21T04:26:56;96400.69;;;17.71;48.40
40596;BME280;26304;48.794;9.820;2023-03-21T04:32:39;96392.78;;;17.67;48.50
40596;BME280;26304;48.794;9.820;2023-03-21T04:38:23;96395.78;;;17.66;48.68
40596;BME280;26304;48.794;9.820;2023-03-21T04:44:06;96397.66;;;17.65;48.05
40596;BME280;26304;48.794;9.820;2023-03-21T04:49:49;96402.91;;;17.65;48.58
40596;BME280;26304;48.794;9.820;2023-03-21T04:55:33;96396.53;;;17.66;47.97
40596;BME280;26304;48.794;9.820;2023-03-21T05:01:16;96395.06;;;17.72;48.34
40596;BME280;26304;48.794;9.820;2023-03-21T05:07:00;96393.97;;;17.73;48.35
40596;BME280;26304;48.794;9.820;2023-03-21T05:12:44;96398.13;;;17.74;48.27
40596;BME280;26304;48.794;9.820;2023-03-21T05:18:26;96396.59;;;17.73;47.96
40596;BME280;26304;48.794;9.820;2023-03-21T05:24:12;96404.09;;;17.71;47.98
40596;BME280;26304;48.794;9.820;2023-03-21T05:29:56;96395.06;;;17.72;48.63
40596;BME280;26304;48.794;9.820;2023-03-21T05:35:38;96398.53;;;17.84;48.59
40596;BME280;26304;48.794;9.820;2023-03-21T05:41:21;96397.16;;;17.93;48.54
40596;BME280;26304;48.794;9.820;2023-03-21T05:47:05;96406.91;;;17.93;49.01
40596;BME280;26304;48.794;9.820;2023-03-21T05:52:47;96406.28;;;18.07;49.07
40596;BME280;26304;48.794;9.820;2023-03-21T05:58:29;96411.63;;;18.18;49.58
40596;BME280;26304;48.794;9.820;2023-03-21T06:04:13;96415.97;;;17.99;50.09
40596;BME280;26304;48.794;9.820;2023-03-21T06:09:55;96416.09;;;18.17;49.37
40596;BME280;26304;48.794;9.820;2023-03-21T06:15:38;96414.63;;;18.16;49.92
40596;BME280;26304;48.794;9.820;2023-03-21T06:21:22;96411.16;;;18.08;49.80
40596;BME280;26304;48.794;9.820;2023-03-21T06:27:04;96414.78;;;17.89;49.64
40596;BME280;26304;48.794;9.820;2023-03-21T06:32:47;96416.22;;;17.83;49.82
40596;BME280;26304;48.794;9.820;2023-03-21T06:38:30;96417.72;;;17.84;50.07
40596;BME280;26304;48.794;9.820;2023-03-21T06:44:13;96415.63;;;18.04;49.75
40596;BME280;26304;48.794;9.820;2023-03-21T06:49:55;96414.56;;;18.12;50.16
40596;BME280;26304;48.794;9.820;2023-03-21T06:55:40;96408.94;;;18.14;50.31
40596;BME280;26304;48.794;9.820;2023-03-21T07:01:22;96415.53;;;17.90;50.25
40596;BME280;26304;48.794;9.820;2023-03-21T07:07:07;96420.41;;;17.88;49.86
40596;BME280;26304;48.794;9.820;2023-03-21T07:12:51;96416.56;;;17.82;49.69
40596;BME280;26304;48.794;9.820;2023-03-21T07:18:33;96416.19;;;17.79;49.49
40596;BME280;26304;48.794;9.820;2023-03-21T07:24:16;96413.16;;;17.77;49.11
40596;BME280;26304;48.794;9.820;2023-03-21T07:30:00;96413.16;;;17.77;48.63
40596;BME280;26304;48.794;9.820;2023-03-21T07:35:42;96409.03;;;17.76;48.89
40596;BME280;26304;48.794;9.820;2023-03-21T07:41:25;96409.03;;;17.76;48.81
40596;BME280;26304;48.794;9.820;2023-03-21T07:47:09;96408.63;;;17.74;48.42
40596;BME280;26304;48.794;9.820;2023-03-21T07:52:51;96408.63;;;17.74;48.15
40596;BME280;26304;48.794;9.820;2023-03-21T07:58:33;96406.72;;;17.71;48.03
40596;BME280;26304;48.794;9.820;2023-03-21T08:04:17;96404.47;;;17.70;47.96
40596;BME280;26304;48.794;9.820;2023-03-21T08:10:00;96408.63;;;17.74;48.05
40596;BME280;26304;48.794;9.820;2023-03-21T08:15:42;96407.47;;;17.72;47.97
40596;BME280;26304;48.794;9.820;2023-03-21T08:21:26;96415.34;;;17.68;48.03
40596;BME280;26304;48.794;9.820;2023-03-21T08:27:08;96413.81;;;17.67;47.95
40596;BME280;26304;48.794;9.820;2023-03-21T08:32:55;96403.69;;;17.69;47.81
40596;BME280;26304;48.794;9.820;2023-03-21T08:38:39;96390.91;;;17.68;47.75
40596;BME280;26304;48.794;9.820;2023-03-21T08:44:21;96400.69;;;17.67;47.53
40596;BME280;26304;48.794;9.820;2023-03-21T08:50:06;96400.31;;;17.69;47.31
40596;BME280;26304;48.794;9.820;2023-03-21T08:55:50;96401.41;;;17.64;46.87
40596;BME280;26304;48.794;9.820;2023-03-21T09:01:33;96391.28;;;17.66;46.95
40596;BME280;26304;48.794;9.820;2023-03-21T09:07:15;96395.75;;;17.62;47.40
40596;BME280;26304;48.794;9.820;2023-03-21T09:12:59;96394.78;;;17.77;46.63
40596;BME280;26304;48.794;9.820;2023-03-21T09:18:44;96388.72;;;17.77;46.99
40596;BME280;26304;48.794;9.820;2023-03-21T09:24:28;96388.44;;;17.86;46.96
40596;BME280;26304;48.794;9.820;2023-03-21T09:30:14;96389.94;;;17.87;46.57
40596;BME280;26304;48.794;9.820;2023-03-21T09:35:57;96383.97;;;17.90;46.45
40596;BME280;26304;48.794;9.820;2023-03-21T09:41:53;96379.50;;;17.94;46.48
40596;BME280;26304;48.794;9.820;2023-03-21T09:47:43;96379.22;;;18.06;46.60
40596;BME280;26304;48.794;9.820;2023-03-21T09:53:36;96378.50;;;18.09;46.25
40596;BME280;26304;48.794;9.820;2023-03-21T09:59:26;96386.41;;;18.17;46.85
40596;BME280;26304;48.794;9.820;2023-03-21T10:05:16;96373.25;;;18.17;46.80
40596;BME280;26304;48.794;9.820;2023-03-21T10:11:01;96360.47;;;18.11;46.14
40596;BME280;26304;48.794;9.820;2023-03-21T10:16:48;96359.00;;;18.18;46.44
40596;BME280;26304;48.794;9.820;2023-03-21T10:22:32;96351.13;;;18.28;46.23
40596;BME280;26304;48.794;9.820;2023-03-21T10:28:17;96350.06;;;18.37;45.61
40596;BME280;26304;48.794;9.820;2023-03-21T10:34:03;96348.50;;;18.28;46.04
40596;BME280;26304;48.794;9.820;2023-03-21T10:39:50;96333.19;;;18.41;45.48
40596;BME280;26304;48.794;9.820;2023-03-21T10:45:34;96328.66;;;18.45;45.81
40596;BME280;26304;48.794;9.820;2023-03-21T10:51:19;96321.19;;;18.55;46.14
40596;BME280;26304;48.794;9.820;2023-03-21T10:57:06;96337.41;;;18.64;46.58
40596;BME280;26304;48.794;9.820;2023-03-21T11:02:52;96324.63;;;18.66;46.94
40596;BME280;26304;48.794;9.820;2023-03-21T11:08:39;96329.56;;;18.78;47.13
40596;BME280;26304;48.794;9.820;2023-03-21T11:14:42;96317.84;;;18.65;47.33
40596;BME280;26304;48.794;9.820;2023-03-21T11:20:28;96313.72;;;18.75;47.67
40596;BME280;26304;48.794;9.820;2023-03-21T11:26:17;96306.25;;;18.84;47.43
40596;BME280;26304;48.794;9.820;2023-03-21T11:32:10;96308.50;;;18.85;47.48
40596;BME280;26304;48.794;9.820;2023-03-21T11:37:55;96300.28;;;19.01;47.23
40596;BME280;26304;48.794;9.820;2023-03-21T11:43:38;96293.13;;;19.05;47.03
40596;BME280;26304;48.794;9.820;2023-03-21T11:49:23;96272.81;;;19.06;46.94
40596;BME280;26304;48.794;9.820;2023-03-21T11:55:31;96277.69;;;19.11;47.57
40596;BME280;26304;48.794;9.820;2023-03-21T12:01:25;96279.19;;;19.05;47.92
40596;BME280;26304;48.794;9.820;2023-03-21T12:07:21;96270.16;;;19.06;47.53
40596;BME280;26304;48.794;9.820;2023-03-21T12:13:15;96266.41;;;19.07;47.89
40596;BME280;26304;48.794;9.820;2023-03-21T12:19:12;96252.84;;;19.12;47.66
40596;BME280;26304;48.794;9.820;2023-03-21T12:25:04;96251.38;;;19.18;47.51
40596;BME280;26304;48.794;9.820;2023-03-21T12:31:00;96244.56;;;19.17;47.60
40596;BME280;26304;48.794;9.820;2023-03-21T12:37:07;96232.53;;;19.20;47.58
40596;BME280;26304;48.794;9.820;2023-03-21T12:43:19;96217.84;;;19.22;47.52
40596;BME280;26304;48.794;9.820;2023-03-21T12:49:08;96223.50;;;19.24;47.62
40596;BME280;26304;48.794;9.820;2023-03-21T12:54:58;96218.97;;;19.25;47.58
40596;BME280;26304;48.794;9.820;2023-03-21T13:00:46;96212.94;;;19.06;47.34
40596;BME280;26304;48.794;9.820;2023-03-21T13:06:29;96211.44;;;18.98;45.80
40596;BME280;26304;48.794;9.820;2023-03-21T13:12:25;96209.19;;;18.93;46.20
40596;BME280;26304;48.794;9.820;2023-03-21T13:18:18;96203.94;;;18.90;45.82
40596;BME280;26304;48.794;9.820;2023-03-21T13:24:17;96199.03;;;18.99;45.69
40596;BME280;26304;48.794;9.820;2023-03-21T13:30:03;96189.59;;;18.83;45.33
40596;BME280;26304;48.794;9.820;2023-03-21T13:35:55;96196.34;;;18.66;44.78
40596;BME280;26304;48.794;9.820;2023-03-21T13:41:42;96179.44;;;18.71;45.17
40596;BME280;26304;48.794;9.820;2023-03-21T13:47:50;96179.06;;;18.73;44.51
40596;BME280;26304;48.794;9.820;2023-03-21T13:53:37;96177.19;;;18.73;44.67
40596;BME280;26304;48.794;9.820;2023-03-21T13:59:36;96168.53;;;18.69;44.87
40596;BME280;26304;48.794;9.820;2023-03-21T14:05:20;96158.75;;;18.62;44.79
40596;BME280;26304;48.794;9.820;2023-03-21T14:11:09;96158.00;;;18.65;44.96
40596;BME280;26304;48.794;9.820;2023-03-21T14:16:54;96160.63;;;18.80;45.10
40596;BME280;26304;48.794;9.820;2023-03-21T14:22:38;96157.25;;;18.94;45.11
40596;BME280;26304;48.794;9.820;2023-03-21T14:28:23;96151.59;;;19.06;44.70
40596;BME280;26304;48.794;9.820;2023-03-21T14:34:09;96154.63;;;19.01;45.21
40596;BME280;26304;48.794;9.820;2023-03-21T14:39:56;96148.59;;;18.97;45.09
40596;BME280;26304;48.794;9.820;2023-03-21T14:45:46;96144.09;;;19.12;45.15
40596;BME280;26304;48.794;9.820;2023-03-21T14:51:28;96133.94;;;18.99;45.13
40596;BME280;26304;48.794;9.820;2023-03-21T14:57:13;96140.34;;;19.02;45.23
40596;BME280;26304;48.794;9.820;2023-03-21T15:02:58;96133.56;;;19.01;45.03
40596;BME280;26304;48.794;9.820;2023-03-21T15:08:53;96131.31;;;18.96;45.16
40596;BME280;26304;48.794;9.820;2023-03-21T15:14:36;96129.81;;;19.02;45.33
40596;BME280;26304;48.794;9.820;2023-03-21T15:20:23;96134.28;;;19.16;44.99
40596;BME280;26304;48.794;9.820;2023-03-21T15:26:12;96129.03;;;18.98;45.52
40596;BME280;26304;48.794;9.820;2023-03-21T15:31:56;96122.66;;;18.99;45.27
40596;BME280;26304;48.794;9.820;2023-03-21T15:37:41;96122.66;;;18.99;45.56
40596;BME280;26304;48.794;9.820;2023-03-21T15:43:23;96109.84;;;18.97;45.36
40596;BME280;26304;48.794;9.820;2023-03-21T15:49:07;96111.34;;;18.98;45.45
40596;BME280;26304;48.794;9.820;2023-03-21T15:54:51;96115.84;;;19.05;45.66
40596;BME280;26304;48.794;9.820;2023-03-21T16:00:38;96118.88;;;19.07;46.08
40596;BME280;26304;48.794;9.820;2023-03-21T16:06:22;96121.50;;;19.07;45.14
40596;BME280;26304;48.794;9.820;2023-03-21T16:12:10;96119.59;;;19.11;45.08
40596;BME280;26304;48.794;9.820;2023-03-21T16:17:54;96121.13;;;19.09;44.89
40596;BME280;26304;48.794;9.820;2023-03-21T16:23:38;96125.63;;;19.08;45.08
40596;BME280;26304;48.794;9.820;2023-03-21T16:29:21;96127.16;;;19.05;45.12
40596;BME280;26304;48.794;9.820;2023-03-21T16:35:04;96133.94;;;19.10;45.26
40596;BME280;26304;48.794;9.820;2023-03-21T16:40:47;96130.91;;;19.08;45.30
40596;BME280;26304;48.794;9.820;2023-03-21T16:46:32;96129.41;;;19.03;45.41
40596;BME280;26304;48.794;9.820;2023-03-21T16:52:15;96132.06;;;19.03;44.99
40596;BME280;26304;48.794;9.820;2023-03-21T16:57:58;96132.81;;;19.00;44.86
40596;BME280;26304;48.794;9.820;2023-03-21T17:03:42;96132.06;;;19.03;45.23
40596;BME280;26304;48.794;9.820;2023-03-21T17:09:24;96135.81;;;18.99;45.27
40596;BME280;26304;48.794;9.820;2023-03-21T17:15:08;96134.69;;;18.96;44.88
40596;BME280;26304;48.794;9.820;2023-03-21T17:20:52;96138.06;;;19.04;45.19
40596;BME280;26304;48.794;9.820;2023-03-21T17:26:35;96136.19;;;19.04;44.51
40596;BME280;26304;48.794;9.820;2023-03-21T17:32:17;96141.09;;;18.99;45.46
40596;BME280;26304;48.794;9.820;2023-03-21T17:38:01;96147.47;;;18.87;45.47
40596;BME280;26304;48.794;9.820;2023-03-21T17:43:44;96145.94;;;18.82;45.36
40596;BME280;26304;48.794;9.820;2023-03-21T17:49:26;96149.34;;;18.72;45.26
40596;BME280;26304;48.794;9.820;2023-03-21T17:55:10;96152.72;;;18.73;45.47
40596;BME280;26304;48.794;9.820;2023-03-21T18:00:53;96150.84;;;19.09;45.43
40596;BME280;26304;48.794;9.820;2023-03-21T18:06:35;96154.22;;;19.20;45.24
40596;BME280;26304;48.794;9.820;2023-03-21T18:12:19;96159.13;;;19.22;45.90
40596;BME280;26304;48.794;9.820;2023-03-21T18:18:02;96149.72;;;19.10;46.30
40596;BME280;26304;48.794;9.820;2023-03-21T18:23:46;96163.63;;;19.25;45.74
40596;BME280;26304;48.794;9.820;2023-03-21T18:29:30;96159.13;;;19.22;46.79
40596;BME280;26304;48.794;9.820;2023-03-21T18:35:15;96169.28;;;19.34;46.19
40596;BME280;26304;48.794;9.820;2023-03-21T18:40:57;96166.25;;;19.39;46.54
40596;BME280;26304;48.794;9.820;2023-03-21T18:46:42;96173.78;;;19.37;46.82
40596;BME280;26304;48.794;9.820;2023-03-21T18:52:27;96182.06;;;19.47;47.46
40596;BME280;26304;48.794;9.820;2023-03-21T18:58:09;96174.16;;;19.36;47.25
40596;BME280;26304;48.794;9.820;2023-03-21T19:03:54;96182.06;;;19.36;47.00
40596;BME280;26304;48.794;9.820;2023-03-21T19:09:40;96181.31;;;19.42;46.86
40596;BME280;26304;48.794;9.820;2023-03-21T19:15:23;96183.56;;;19.37;46.88
40596;BME280;26304;48.794;9.820;2023-03-21T19:21:07;96186.97;;;19.23;47.19
40596;BME280;26304;48.794;9.820;2023-03-21T19:26:49;96188.88;;;19.04;46.08
40596;BME280;26304;48.794;9.820;2023-03-21T19:32:32;96165.56;;;18.96;45.84
40596;BME280;26304;48.794;9.820;2023-03-21T19:38:16;96167.81;;;18.90;47.21
40596;BME280;26304;48.794;9.820;2023-03-21T19:43:58;96175.31;;;18.92;47.12
40596;BME280;26304;48.794;9.820;2023-03-21T19:49:41;96179.84;;;18.91;46.95
40596;BME280;26304;48.794;9.820;2023-03-21T19:55:25;96177.97;;;18.88;46.77
40596;BME280;26304;48.794;9.820;2023-03-21T20:01:08;96157.25;;;18.94;47.17
40596;BME280;26304;48.794;9.820;2023-03-21T20:06:52;96156.84;;;18.66;46.68
40596;BME280;26304;48.794;9.820;2023-03-21T20:12:39;96153.47;;;18.59;46.61
40596;BME280;26304;48.794;9.820;2023-03-21T20:18:22;96162.88;;;18.56;46.83
40596;BME280;26304;48.794;9.820;2023-03-21T20:24:05;96166.25;;;18.57;46.97
40596;BME280;26304;48.794;9.820;2023-03-21T20:29:49;96157.19;;;18.36;47.17
40596;BME280;26304;48.794;9.820;2023-03-21T20:35:32;96163.97;;;18.37;47.16
40596;BME280;26304;48.794;9.820;2023-03-21T20:41:14;96150.44;;;18.75;46.88
40596;BME280;26304;48.794;9.820;2023-03-21T20:46:58;96159.88;;;18.83;46.05
40596;BME280;26304;48.794;9.820;2023-03-21T20:52:41;96164.72;;;18.34;47.97
40596;BME280;26304;48.794;9.820;2023-03-21T20:58:23;96153.03;;;18.28;48.13
40596;BME280;26304;48.794;9.820;2023-03-21T21:04:07;96169.94;;;18.20;47.94
40596;BME280;26304;48.794;9.820;2023-03-21T21:09:49;96177.44;;;18.10;47.43
40596;BME280;26304;48.794;9.820;2023-03-21T21:15:32;96182.69;;;18.03;46.93
40596;BME280;26304;48.794;9.820;2023-03-21T21:21:15;96178.16;;;18.00;47.45
40596;BME280;26304;48.794;9.820;2023-03-21T21:26:58;96179.25;;;17.99;47.07
40596;BME280;26304;48.794;9.820;2023-03-21T21:32:41;96178.91;;;18.04;47.45
40596;BME280;26304;48.794;9.820;2023-03-21T21:38:25;96175.56;;;18.11;47.35
40596;BME280;26304;48.794;9.820;2023-03-21T21:44:07;96191.72;;;18.17;47.21
40596;BME280;26304;48.794;9.820;2023-03-21T21:49:50;96190.22;;;18.12;47.87
40596;BME280;26304;48.794;9.820;2023-03-21T21:55:35;96186.09;;;18.11;47.81
40596;BME280;26304;48.794;9.820;2023-03-21T22:01:18;96175.94;;;18.09;47.86
40596;BME280;26304;48.794;9.820;2023-03-21T22:07:02;96173.31;;;18.09;48.08
40596;BME280;26304;48.794;9.820;2023-03-21T22:12:47;96166.13;;;18.03;48.42
40596;BME280;26304;48.794;9.820;2023-03-21T22:18:30;96157.84;;;18.01;48.77
40596;BME280;26304;48.794;9.820;2023-03-21T22:24:15;96160.13;;;17.99;48.76
40596;BME280;26304;48.794;9.820;2023-03-21T22:29:59;96169.13;;;17.97;48.96
40596;BME280;26304;48.794;9.820;2023-03-21T22:35:44;96164.97;;;17.96;48.91
40596;BME280;26304;48.794;9.820;2023-03-21T22:41:27;96154.81;;;17.88;48.61
40596;BME280;26304;48.794;9.820;2023-03-21T22:47:11;96157.78;;;17.86;48.24
40596;BME280;26304;48.794;9.820;2023-03-21T22:52:53;96163.44;;;17.88;49.34
40596;BME280;26304;48.794;9.820;2023-03-21T22:58:35;96159.28;;;17.87;49.16
40596;BME280;26304;48.794;9.820;2023-03-21T23:04:19;96160.06;;;17.88;49.36
40596;BME280;26304;48.794;9.820;2023-03-21T23:10:01;96155.56;;;17.88;49.47
40596;BME280;26304;48.794;9.820;2023-03-21T23:15:45;96155.88;;;17.87;49.31
40596;BME280;26304;48.794;9.820;2023-03-21T23:21:28;96157.03;;;17.86;48.96
40596;BME280;26304;48.794;9.820;2023-03-21T23:27:12;96160.03;;;17.84;49.07
40596;BME280;26304;48.794;9.820;2023-03-21T23:32:55;96163.78;;;17.83;49.05
40596;BME280;26304;48.794;9.820;2023-03-21T23:38:39;96163.03;;;17.83;49.26
40596;BME280;26304;48.794;9.820;2023-03-21T23:44:21;96166.41;;;17.79;49.68
40596;BME280;26304;48.794;9.820;2023-03-21T23:50:04;96159.63;;;17.78;49.17
40596;BME280;26304;48.794;9.820;2023-03-21T23:55:51;96152.50;;;17.79;49.40
